Time;durP1;ratioP1;P1;durP2;ratioP2;P2;SDS_P1;SDS_P2;PMS_P1;PMS_P2;Temp;Humidity;BMP_temperature;BMP_pressure;BME280_temperature;BME280_humidity;BME280_pressure;Samples;Min_cycle;Max_cycle;Signal;HPM_P1;HPM_P2
2021/11/18 00:00:40;;;;;;;6.97;6.27;;;9.50;99.90;;;;;;5010849;28;20582;-65
2021/11/18 00:03:09;;;;;;;6.90;6.13;;;9.50;99.90;;;;;;5011461;28;20253;-64
2021/11/18 00:05:36;;;;;;;7.90;5.50;;;9.50;99.90;;;;;;5011030;28;20211;-64
2021/11/18 00:08:04;;;;;;;7.17;6.07;;;9.60;99.90;;;;;;5011576;28;20594;-65
2021/11/18 00:10:35;;;;;;;7.40;6.43;;;9.50;99.90;;;;;;5012085;28;20566;-63
2021/11/18 00:13:05;;;;;;;9.00;6.17;;;9.50;99.90;;;;;;5012056;28;20207;-64
2021/11/18 00:15:32;;;;;;;8.50;5.90;;;9.40;99.90;;;;;;5011666;28;20226;-64
2021/11/18 00:18:01;;;;;;;7.37;6.07;;;9.40;99.90;;;;;;5012497;28;20207;-63
2021/11/18 00:20:30;;;;;;;7.70;6.37;;;9.40;99.90;;;;;;5015469;28;20203;-64
2021/11/18 00:22:57;;;;;;;7.20;5.93;;;9.50;99.90;;;;;;5015413;28;20214;-63
2021/11/18 00:25:24;;;;;;;8.10;6.63;;;9.50;99.90;;;;;;5015022;28;20625;-63
2021/11/18 00:27:53;;;;;;;7.43;6.57;;;9.50;99.90;;;;;;5014444;28;20207;-63
2021/11/18 00:30:20;;;;;;;7.80;6.40;;;9.50;99.90;;;;;;5014460;28;20289;-64
2021/11/18 00:32:48;;;;;;;9.63;6.50;;;9.50;99.90;;;;;;5014642;28;20207;-64
2021/11/18 00:35:17;;;;;;;10.53;6.13;;;9.50;99.90;;;;;;5014319;28;20541;-63
2021/11/18 00:37:43;;;;;;;10.47;6.57;;;9.40;99.90;;;;;;5014368;28;20211;-63
2021/11/18 00:40:12;;;;;;;8.03;6.47;;;9.50;99.90;;;;;;5014178;28;20210;-63
2021/11/18 00:42:39;;;;;;;6.80;6.10;;;9.50;99.90;;;;;;5014129;28;20207;-64
2021/11/18 00:45:10;;;;;;;7.40;6.40;;;9.50;99.90;;;;;;5014086;28;20242;-63
2021/11/18 00:47:36;;;;;;;8.53;6.30;;;9.40;99.90;;;;;;5014236;28;20211;-63
2021/11/18 00:50:04;;;;;;;8.60;6.50;;;9.40;99.90;;;;;;5014025;28;20207;-63
2021/11/18 00:52:31;;;;;;;8.37;6.37;;;9.40;99.90;;;;;;5014283;28;20215;-63
2021/11/18 00:54:58;;;;;;;8.97;7.13;;;9.40;99.90;;;;;;5013818;28;20707;-63
2021/11/18 00:57:25;;;;;;;8.20;6.40;;;9.40;99.90;;;;;;5014076;28;20671;-62
2021/11/18 00:59:52;;;;;;;9.60;6.90;;;9.30;99.90;;;;;;5014167;28;20740;-62
2021/11/18 01:02:21;;;;;;;9.67;6.80;;;9.30;99.90;;;;;;5014089;28;20689;-63
2021/11/18 01:04:50;;;;;;;7.70;6.50;;;9.40;99.90;;;;;;5013650;28;20234;-63
2021/11/18 01:07:16;;;;;;;8.80;6.40;;;9.50;99.90;;;;;;5013879;28;20709;-63
2021/11/18 01:09:43;;;;;;;7.20;6.50;;;9.50;99.90;;;;;;5013514;28;20629;-62
2021/11/18 01:12:12;;;;;;;8.90;6.50;;;9.50;99.90;;;;;;5013550;28;20749;-63
2021/11/18 01:14:39;;;;;;;8.60;7.20;;;9.50;99.90;;;;;;5013319;28;20235;-63
2021/11/18 01:17:06;;;;;;;9.07;7.00;;;9.50;99.90;;;;;;5013570;28;20672;-64
2021/11/18 01:19:37;;;;;;;8.20;6.90;;;9.60;99.90;;;;;;5013254;28;20678;-63
2021/11/18 01:22:07;;;;;;;8.43;6.77;;;9.60;99.90;;;;;;5013587;28;20429;-63
2021/11/18 01:24:36;;;;;;;8.73;7.60;;;9.60;99.90;;;;;;5012956;28;20219;-63
2021/11/18 01:27:03;;;;;;;8.00;6.80;;;9.50;99.90;;;;;;5013270;28;20210;-63
2021/11/18 01:29:30;;;;;;;8.40;6.60;;;9.50;99.90;;;;;;5012455;28;20206;-63
2021/11/18 01:31:58;;;;;;;8.30;6.97;;;9.50;99.90;;;;;;5013395;28;20221;-63
2021/11/18 01:34:24;;;;;;;8.30;7.40;;;9.50;99.90;;;;;;5012862;28;20610;-63
2021/11/18 01:36:52;;;;;;;8.97;7.13;;;9.50;99.90;;;;;;5013639;28;20207;-63
2021/11/18 01:39:19;;;;;;;9.40;7.03;;;9.50;99.90;;;;;;5012786;28;20234;-63
2021/11/18 01:41:47;;;;;;;8.20;7.13;;;9.60;99.90;;;;;;5013197;28;20214;-63
2021/11/18 01:44:16;;;;;;;7.67;6.83;;;9.60;99.90;;;;;;5013329;28;20293;-63
2021/11/18 01:46:43;;;;;;;7.80;7.00;;;9.60;99.90;;;;;;5013071;28;20261;-63
2021/11/18 01:49:12;;;;;;;9.20;7.30;;;9.70;99.90;;;;;;5012909;28;20257;-62
2021/11/18 01:51:44;;;;;;;8.23;6.97;;;9.70;99.90;;;;;;5012868;28;20214;-62
2021/11/18 01:54:14;;;;;;;12.57;7.00;;;9.70;99.90;;;;;;5012833;28;20231;-62
2021/11/18 01:56:42;;;;;;;9.50;7.03;;;9.50;99.90;;;;;;5013057;28;20214;-63
2021/11/18 01:59:13;;;;;;;7.97;7.10;;;9.50;99.90;;;;;;5012705;28;20214;-62
2021/11/18 02:01:42;;;;;;;7.57;6.77;;;9.50;99.90;;;;;;5012791;28;20578;-63
2021/11/18 02:04:11;;;;;;;8.57;7.03;;;9.60;99.90;;;;;;5012293;28;20234;-62
2021/11/18 02:06:42;;;;;;;10.20;7.23;;;9.60;99.90;;;;;;5012708;28;20211;-63
2021/11/18 02:09:14;;;;;;;8.83;6.90;;;9.70;99.90;;;;;;5012541;28;20207;-63
2021/11/18 02:11:44;;;;;;;8.13;6.70;;;9.70;99.90;;;;;;5012616;28;20207;-62
2021/11/18 02:14:14;;;;;;;7.37;6.47;;;9.70;99.90;;;;;;5012291;28;20317;-63
2021/11/18 02:16:41;;;;;;;7.37;6.57;;;9.80;99.90;;;;;;5012313;28;20242;-62
2021/11/18 02:19:09;;;;;;;8.93;7.23;;;9.80;99.90;;;;;;5012382;28;20544;-62
2021/11/18 02:21:38;;;;;;;8.57;7.17;;;9.70;99.90;;;;;;5012443;28;20206;-64
2021/11/18 02:24:07;;;;;;;7.43;6.17;;;9.70;99.90;;;;;;5012217;28;20222;-63
2021/11/18 02:26:35;;;;;;;8.17;6.50;;;9.70;99.90;;;;;;5012194;28;20217;-63
2021/11/18 02:29:05;;;;;;;9.20;7.67;;;9.70;99.90;;;;;;5012163;28;20810;-63
2021/11/18 02:31:36;;;;;;;8.83;6.50;;;9.70;99.90;;;;;;5012209;28;20206;-62
2021/11/18 02:34:07;;;;;;;9.30;7.50;;;9.70;99.90;;;;;;5012049;28;20313;-63
2021/11/18 02:36:34;;;;;;;9.33;7.00;;;9.70;99.90;;;;;;5012172;28;20211;-63
2021/11/18 02:39:03;;;;;;;7.57;6.77;;;9.80;99.90;;;;;;5011804;28;20695;-62
2021/11/18 02:41:30;;;;;;;7.33;6.57;;;9.70;99.90;;;;;;5011768;28;20218;-62
2021/11/18 02:43:56;;;;;;;7.80;6.93;;;9.80;99.90;;;;;;5011629;28;20289;-62
2021/11/18 02:46:23;;;;;;;7.43;6.57;;;9.90;99.90;;;;;;5012026;28;20214;-62
2021/11/18 02:48:50;;;;;;;6.87;6.13;;;9.90;99.90;;;;;;5011891;28;20214;-62
2021/11/18 02:51:19;;;;;;;7.57;6.20;;;10.00;99.90;;;;;;5011935;28;20207;-62
2021/11/18 02:53:46;;;;;;;8.20;6.90;;;10.00;99.90;;;;;;5011459;28;20227;-62
2021/11/18 02:56:15;;;;;;;10.37;6.77;;;9.90;99.90;;;;;;5011740;28;20218;-62
2021/11/18 02:58:42;;;;;;;7.87;7.00;;;9.90;99.90;;;;;;5011834;28;20215;-62
2021/11/18 03:01:12;;;;;;;8.07;6.63;;;10.00;99.90;;;;;;5011962;28;20214;-63
2021/11/18 03:03:40;;;;;;;8.17;6.73;;;10.00;99.90;;;;;;5011742;28;20677;-62
2021/11/18 03:06:07;;;;;;;7.23;6.33;;;10.00;99.90;;;;;;5011984;28;20214;-64
2021/11/18 03:08:34;;;;;;;7.63;6.83;;;10.00;99.90;;;;;;5011324;28;20207;-62
2021/11/18 03:11:03;;;;;;;9.20;7.83;;;10.00;99.90;;;;;;5011740;28;20207;-62
2021/11/18 03:13:32;;;;;;;8.40;6.90;;;9.90;99.90;;;;;;5011429;28;20207;-62
2021/11/18 03:15:59;;;;;;;8.37;7.47;;;9.90;99.90;;;;;;5011282;28;20733;-62
2021/11/18 03:18:27;;;;;;;8.90;7.47;;;9.90;99.90;;;;;;5011405;28;20206;-62
2021/11/18 03:20:56;;;;;;;7.80;6.67;;;9.90;99.90;;;;;;5011488;28;20203;-64
2021/11/18 03:23:23;;;;;;;8.07;6.67;;;9.80;99.90;;;;;;5011362;28;20211;-62
2021/11/18 03:25:52;;;;;;;8.37;7.23;;;9.70;99.90;;;;;;5011361;28;20628;-62
2021/11/18 03:28:20;;;;;;;7.77;6.80;;;9.70;99.90;;;;;;5011546;28;20214;-62
2021/11/18 03:30:49;;;;;;;9.27;7.30;;;9.60;99.90;;;;;;5011399;28;20207;-62
2021/11/18 03:33:19;;;;;;;8.70;7.60;;;9.50;99.90;;;;;;5011383;28;20586;-62
2021/11/18 03:35:46;;;;;;;8.60;7.70;;;9.60;99.90;;;;;;5011256;28;20229;-62
2021/11/18 03:38:15;;;;;;;10.17;7.87;;;9.60;99.90;;;;;;5011537;28;20207;-62
2021/11/18 03:40:44;;;;;;;9.83;7.40;;;9.60;99.90;;;;;;5011325;28;20595;-62
2021/11/18 03:43:11;;;;;;;9.40;7.70;;;9.60;99.90;;;;;;5011262;28;20202;-62
2021/11/18 03:45:38;;;;;;;10.20;7.40;;;9.60;99.90;;;;;;5011045;28;20581;-62
2021/11/18 03:48:09;;;;;;;9.10;7.80;;;9.60;99.90;;;;;;5011371;28;20618;-62
2021/11/18 03:50:36;;;;;;;8.33;7.40;;;9.60;99.90;;;;;;5011340;28;20547;-62
2021/11/18 03:53:04;;;;;;;10.17;7.60;;;9.60;99.90;;;;;;5012724;28;20313;-62
2021/11/18 03:55:30;;;;;;;10.07;7.47;;;9.60;99.90;;;;;;5014884;28;20235;-63
2021/11/18 03:57:57;;;;;;;9.27;7.53;;;9.60;99.90;;;;;;5015051;28;20629;-62
2021/11/18 04:00:27;;;;;;;9.03;7.63;;;9.60;99.90;;;;;;5015346;28;20238;-62
2021/11/18 04:02:54;;;;;;;8.37;7.53;;;9.60;99.90;;;;;;5015031;28;20211;-62
2021/11/18 04:05:22;;;;;;;11.23;7.33;;;9.70;99.90;;;;;;5015047;28;20227;-64
2021/11/18 04:07:49;;;;;;;8.53;7.63;;;9.70;99.90;;;;;;5015003;28;20210;-62
2021/11/18 04:10:19;;;;;;;9.97;7.63;;;9.60;99.90;;;;;;5015195;28;20211;-62
2021/11/18 04:12:47;;;;;;;9.30;7.70;;;9.70;99.90;;;;;;5015092;28;20225;-62
2021/11/18 04:15:15;;;;;;;9.43;7.57;;;9.70;99.90;;;;;;5014757;28;20237;-62
2021/11/18 04:17:42;;;;;;;12.83;7.87;;;9.80;99.90;;;;;;5015124;28;20222;-62
2021/11/18 04:20:11;;;;;;;9.27;7.87;;;9.70;99.90;;;;;;5014924;28;20671;-62
2021/11/18 04:22:39;;;;;;;9.63;8.17;;;9.70;99.90;;;;;;5015011;28;20214;-61
2021/11/18 04:25:09;;;;;;;9.43;7.50;;;9.70;99.90;;;;;;5014528;28;20240;-62
2021/11/18 04:27:36;;;;;;;8.93;7.40;;;9.60;99.90;;;;;;5014879;28;20211;-63
2021/11/18 04:30:05;;;;;;;8.60;7.53;;;9.60;99.90;;;;;;5014921;28;20214;-64
2021/11/18 04:32:32;;;;;;;10.07;8.17;;;9.60;99.90;;;;;;5014990;28;20210;-63
2021/11/18 04:34:59;;;;;;;9.60;8.50;;;9.60;99.90;;;;;;5014444;28;20231;-63
2021/11/18 04:37:26;;;;;;;9.20;8.30;;;9.70;99.90;;;;;;5015552;28;20637;-63
2021/11/18 04:39:55;;;;;;;9.73;8.33;;;9.70;99.90;;;;;;5015215;28;20207;-63
2021/11/18 04:42:22;;;;;;;9.70;7.77;;;9.70;99.90;;;;;;5014831;28;20211;-63
2021/11/18 04:44:49;;;;;;;8.93;7.50;;;9.70;99.90;;;;;;5014073;28;20245;-63
2021/11/18 04:47:16;;;;;;;9.30;7.63;;;9.80;99.90;;;;;;5014698;28;20210;-63
2021/11/18 04:49:45;;;;;;;10.60;8.07;;;9.90;99.90;;;;;;5014560;28;20207;-63
2021/11/18 04:52:12;;;;;;;10.80;8.30;;;9.80;99.90;;;;;;5014508;28;20215;-63
2021/11/18 04:54:40;;;;;;;9.83;7.87;;;9.90;99.90;;;;;;5014365;28;20231;-63
2021/11/18 04:57:08;;;;;;;8.73;7.83;;;9.90;99.90;;;;;;5014743;28;20563;-63
2021/11/18 04:59:35;;;;;;;9.43;7.43;;;10.00;99.90;;;;;;5015178;28;20641;-62
2021/11/18 05:02:02;;;;;;;9.23;7.73;;;10.00;99.90;;;;;;5014715;28;20624;-63
2021/11/18 05:04:29;;;;;;;9.80;8.33;;;10.00;99.90;;;;;;5013432;28;20300;-64
2021/11/18 05:06:56;;;;;;;10.30;7.37;;;10.00;99.90;;;;;;5014984;28;20300;-63
2021/11/18 05:09:24;;;;;;;8.77;6.93;;;10.10;99.90;;;;;;5013909;28;20207;-62
2021/11/18 05:11:51;;;;;;;9.20;7.37;;;10.10;99.90;;;;;;5014208;28;20571;-63
2021/11/18 05:14:19;;;;;;;10.33;7.03;;;10.20;99.90;;;;;;5014147;28;20447;-62
2021/11/18 05:16:46;;;;;;;10.53;7.07;;;10.30;99.90;;;;;;5014346;28;20230;-63
2021/11/18 05:19:12;;;;;;;8.53;7.30;;;10.30;99.90;;;;;;5013790;28;20203;-62
2021/11/18 05:21:41;;;;;;;8.93;7.10;;;10.30;99.90;;;;;;5013828;28;20233;-64
2021/11/18 05:24:08;;;;;;;9.93;7.50;;;10.30;99.90;;;;;;5013292;28;20234;-62
2021/11/18 05:26:35;;;;;;;11.00;7.77;;;10.30;99.90;;;;;;5014059;28;20678;-62
2021/11/18 05:29:03;;;;;;;10.10;7.57;;;10.30;99.90;;;;;;5013911;28;20269;-63
2021/11/18 05:31:31;;;;;;;8.37;6.90;;;10.30;99.90;;;;;;5013809;28;20682;-62
2021/11/18 05:33:58;;;;;;;8.77;7.07;;;10.20;99.90;;;;;;5013527;28;20277;-63
2021/11/18 05:36:25;;;;;;;9.73;8.30;;;10.20;99.90;;;;;;5013536;28;20258;-63
2021/11/18 05:38:52;;;;;;;10.07;8.07;;;10.10;99.90;;;;;;5013076;28;20214;-63
2021/11/18 05:41:19;;;;;;;9.27;7.37;;;10.10;99.90;;;;;;5013586;28;20625;-63
2021/11/18 05:43:47;;;;;;;8.93;7.73;;;10.10;99.90;;;;;;5012954;28;20742;-63
2021/11/18 05:46:15;;;;;;;12.77;7.57;;;10.20;99.90;;;;;;5013114;28;20207;-63
2021/11/18 05:48:44;;;;;;;9.13;8.20;;;10.10;99.90;;;;;;5012873;28;20203;-63
2021/11/18 05:51:13;;;;;;;12.63;7.73;;;10.10;99.90;;;;;;5013338;28;20203;-63
2021/11/18 05:53:43;;;;;;;11.77;8.07;;;10.20;99.90;;;;;;5013569;28;20230;-63
2021/11/18 05:56:12;;;;;;;9.63;8.23;;;10.30;99.90;;;;;;5013842;28;20231;-63
2021/11/18 05:58:40;;;;;;;10.93;8.50;;;10.30;99.90;;;;;;5012789;28;20215;-63
2021/11/18 06:01:09;;;;;;;11.27;8.27;;;10.40;99.90;;;;;;5012883;28;20214;-64
2021/11/18 06:03:36;;;;;;;15.07;10.43;;;10.40;99.90;;;;;;5012586;28;20234;-63
2021/11/18 06:06:04;;;;;;;15.87;11.20;;;10.40;99.90;;;;;;5012766;28;20232;-63
2021/11/18 06:08:32;;;;;;;11.83;9.40;;;10.30;99.90;;;;;;5012653;28;20694;-63
2021/11/18 06:10:59;;;;;;;12.80;10.63;;;10.30;99.90;;;;;;5012698;28;20218;-63
2021/11/18 06:13:25;;;;;;;11.43;9.40;;;10.30;99.90;;;;;;5012666;28;20211;-63
2021/11/18 06:15:53;;;;;;;17.10;10.73;;;10.30;99.90;;;;;;5012495;28;20223;-63
2021/11/18 06:18:19;;;;;;;14.43;10.23;;;10.30;99.90;;;;;;5012128;28;20587;-63
2021/11/18 06:20:47;;;;;;;12.43;9.87;;;10.20;99.90;;;;;;5012652;28;20213;-63
2021/11/18 06:23:15;;;;;;;16.57;10.17;;;10.30;99.90;;;;;;5012494;28;20214;-63
2021/11/18 06:25:42;;;;;;;12.77;10.10;;;10.40;99.90;;;;;;5012441;28;20585;-64
2021/11/18 06:28:13;;;;;;;15.90;10.83;;;10.40;99.90;;;;;;5012317;28;20215;-63
2021/11/18 06:30:49;;;;;;;13.87;10.17;;;10.40;99.90;;;;;;5012098;28;20206;-63
2021/11/18 06:33:17;;;;;;;12.33;9.40;;;10.40;99.90;;;;;;5012283;28;20215;-63
2021/11/18 06:35:44;;;;;;;17.83;12.77;;;10.40;99.90;;;;;;5012301;28;20245;-64
2021/11/18 06:38:10;;;;;;;15.20;8.90;;;10.40;99.90;;;;;;5012007;28;20592;-63
2021/11/18 06:40:38;;;;;;;12.60;9.27;;;10.30;99.90;;;;;;5012319;28;20213;-64
2021/11/18 06:43:06;;;;;;;13.70;9.60;;;10.40;99.90;;;;;;5012023;28;20211;-64
2021/11/18 06:45:36;;;;;;;13.43;10.20;;;10.40;99.90;;;;;;5011669;28;20239;-64
2021/11/18 06:48:03;;;;;;;17.67;12.30;;;10.40;99.90;;;;;;5012079;28;20211;-64
2021/11/18 06:50:30;;;;;;;15.10;11.00;;;10.30;99.90;;;;;;5011826;28;20757;-64
2021/11/18 06:52:57;;;;;;;17.97;12.53;;;10.30;99.90;;;;;;5012299;28;20210;-62
2021/11/18 06:55:24;;;;;;;14.80;11.40;;;10.30;99.90;;;;;;5011357;28;20237;-63
2021/11/18 06:57:52;;;;;;;13.67;10.33;;;10.30;99.90;;;;;;5011490;28;20222;-63
2021/11/18 07:00:20;;;;;;;16.13;10.80;;;10.30;99.90;;;;;;5011553;28;20658;-63
2021/11/18 07:02:47;;;;;;;13.63;10.70;;;10.20;99.90;;;;;;5011861;28;20214;-63
2021/11/18 07:05:14;;;;;;;17.33;12.13;;;10.20;99.90;;;;;;5011518;28;20230;-63
2021/11/18 07:07:41;;;;;;;15.67;11.10;;;10.30;99.90;;;;;;5011642;28;20214;-63
2021/11/18 07:10:10;;;;;;;12.37;9.23;;;10.30;99.90;;;;;;5011597;28;20601;-63
2021/11/18 07:12:37;;;;;;;17.20;12.23;;;10.30;99.90;;;;;;5011476;28;20218;-63
2021/11/18 07:15:07;;;;;;;14.67;9.53;;;10.40;99.90;;;;;;5011375;28;20661;-63
2021/11/18 07:17:34;;;;;;;13.33;10.07;;;10.40;99.90;;;;;;5011249;28;20216;-63
2021/11/18 07:20:03;;;;;;;14.83;10.03;;;10.40;99.90;;;;;;5011244;28;20245;-63
2021/11/18 07:22:30;;;;;;;15.47;10.47;;;10.40;99.90;;;;;;5011240;28;20674;-63
2021/11/18 07:24:57;;;;;;;25.17;16.20;;;10.30;99.90;;;;;;5011377;28;20231;-63
2021/11/18 07:27:24;;;;;;;14.03;10.17;;;10.30;99.90;;;;;;5011138;28;20485;-62
2021/11/18 07:29:51;;;;;;;15.47;10.43;;;10.30;99.90;;;;;;5011040;28;20702;-63
2021/11/18 07:32:20;;;;;;;15.33;11.33;;;10.30;99.90;;;;;;5010965;28;20733;-62
2021/11/18 07:34:47;;;;;;;16.47;11.20;;;10.20;99.90;;;;;;5010904;28;20777;-62
2021/11/18 07:37:13;;;;;;;20.13;12.50;;;10.20;99.90;;;;;;5011176;28;20281;-62
2021/11/18 07:39:40;;;;;;;14.77;10.13;;;10.20;99.90;;;;;;5011197;28;20214;-62
2021/11/18 07:42:07;;;;;;;15.17;11.37;;;10.20;99.90;;;;;;5010957;28;20690;-63
2021/11/18 07:44:33;;;;;;;15.10;9.63;;;10.30;99.90;;;;;;5039853;23;20229;-55
2021/11/18 07:47:00;;;;;;;16.07;10.50;;;10.40;99.90;;;;;;5050872;28;20202;-55
2021/11/18 07:49:28;;;;;;;13.17;10.70;;;10.40;99.90;;;;;;5050676;28;20205;-58
2021/11/18 07:51:55;;;;;;;17.63;10.87;;;10.50;99.90;;;;;;5050537;28;20268;-58
2021/11/18 07:54:24;;;;;;;15.90;10.57;;;10.50;99.90;;;;;;5050490;28;20283;-57
2021/11/18 07:56:52;;;;;;;16.23;11.83;;;10.60;99.90;;;;;;5050466;28;20780;-56
2021/11/18 07:59:19;;;;;;;15.93;10.70;;;10.70;99.90;;;;;;5050587;28;20209;-56
2021/11/18 08:01:46;;;;;;;16.30;11.10;;;10.70;99.90;;;;;;5050751;28;20210;-58
2021/11/18 08:04:13;;;;;;;16.90;11.77;;;10.70;99.90;;;;;;5050518;28;20225;-57
2021/11/18 08:06:42;;;;;;;19.50;11.97;;;10.70;99.90;;;;;;5050470;28;20259;-57
2021/11/18 08:09:11;;;;;;;22.83;13.00;;;10.80;99.90;;;;;;5050558;28;20249;-59
2021/11/18 08:11:41;;;;;;;17.77;11.80;;;10.80;99.90;;;;;;5050936;28;20205;-56
2021/11/18 08:14:08;;;;;;;19.07;12.07;;;11.00;99.90;;;;;;5050414;28;20233;-55
2021/11/18 08:16:35;;;;;;;14.57;11.60;;;11.00;99.90;;;;;;5050237;28;20248;-56
2021/11/18 08:19:03;;;;;;;14.50;11.43;;;11.00;99.90;;;;;;5050064;28;20208;-56
2021/11/18 08:21:29;;;;;;;17.30;11.23;;;11.00;99.90;;;;;;5050471;28;20210;-56
2021/11/18 08:23:58;;;;;;;18.23;11.67;;;10.90;99.90;;;;;;5050339;28;20629;-55
2021/11/18 08:26:25;;;;;;;14.67;11.37;;;11.00;99.90;;;;;;5050785;28;20263;-56
2021/11/18 08:28:52;;;;;;;18.00;11.47;;;11.00;99.90;;;;;;5050871;28;20210;-56
2021/11/18 08:31:19;;;;;;;16.83;11.70;;;11.00;99.90;;;;;;5050678;28;20225;-56
2021/11/18 08:33:47;;;;;;;19.47;12.47;;;11.00;99.90;;;;;;5050029;28;20205;-55
2021/11/18 08:36:14;;;;;;;20.77;13.00;;;11.00;99.90;;;;;;5050347;28;20707;-59
2021/11/18 08:38:42;;;;;;;18.20;12.70;;;11.00;99.90;;;;;;5051083;28;20202;-55
2021/11/18 08:41:11;;;;;;;22.17;13.37;;;11.10;99.90;;;;;;5054440;28;20205;-55
2021/11/18 08:43:41;;;;;;;17.73;12.67;;;11.20;99.90;;;;;;5053862;28;20233;-58
2021/11/18 08:46:09;;;;;;;20.23;13.73;;;11.20;99.90;;;;;;5054048;28;20202;-58
2021/11/18 08:48:36;;;;;;;20.43;13.40;;;11.20;99.90;;;;;;5054047;28;20209;-56
2021/11/18 08:51:04;;;;;;;23.50;13.87;;;11.30;99.90;;;;;;5054280;28;20209;-57
2021/11/18 08:53:33;;;;;;;21.93;13.57;;;11.40;99.90;;;;;;5053873;28;20212;-57
2021/11/18 08:56:00;;;;;;;21.17;13.70;;;11.40;99.90;;;;;;5053632;28;20471;-56
2021/11/18 08:58:32;;;;;;;20.90;13.30;;;11.40;99.90;;;;;;5053534;28;20563;-56
2021/11/18 09:01:03;;;;;;;21.80;13.67;;;11.30;99.90;;;;;;5053847;28;20208;-57
2021/11/18 09:03:33;;;;;;;21.13;13.97;;;11.20;99.90;;;;;;5053729;28;20209;-56
2021/11/18 09:06:02;;;;;;;20.90;14.20;;;11.20;99.90;;;;;;5053666;28;20209;-58
2021/11/18 09:08:29;;;;;;;19.10;13.07;;;11.20;99.90;;;;;;5053450;28;20210;-56
2021/11/18 09:10:56;;;;;;;19.80;13.03;;;11.30;99.90;;;;;;5053579;28;20212;-58
2021/11/18 09:13:23;;;;;;;19.60;12.73;;;11.20;99.90;;;;;;5053101;28;20205;-60
2021/11/18 09:15:53;;;;;;;19.67;13.27;;;11.20;99.90;;;;;;5053316;28;20221;-56
2021/11/18 09:18:20;;;;;;;19.53;12.63;;;11.20;99.90;;;;;;5053358;28;20232;-56
2021/11/18 09:20:50;;;;;;;17.40;13.17;;;11.30;99.90;;;;;;5053336;28;20210;-56
2021/11/18 09:23:22;;;;;;;24.57;13.83;;;11.40;99.90;;;;;;5053546;28;20216;-57
2021/11/18 09:25:51;;;;;;;20.07;13.90;;;11.50;99.90;;;;;;5053063;28;20240;-57
2021/11/18 09:28:20;;;;;;;22.97;15.03;;;11.60;99.90;;;;;;5053165;28;20205;-56
2021/11/18 09:30:49;;;;;;;23.23;12.67;;;11.70;99.90;;;;;;5053198;28;20206;-56
2021/11/18 09:33:18;;;;;;;20.10;14.23;;;11.80;99.90;;;;;;5053101;28;20256;-56
2021/11/18 09:35:48;;;;;;;24.40;13.90;;;11.90;99.90;;;;;;5052904;28;20244;-58
2021/11/18 09:38:17;;;;;;;21.07;14.70;;;11.90;99.90;;;;;;5052757;28;20704;-56
2021/11/18 09:40:47;;;;;;;45.90;29.37;;;11.80;99.90;;;;;;5053528;28;20214;-56
2021/11/18 09:43:50;;;;;;;23.77;15.03;;;11.80;99.90;;;;;;5052951;28;20569;-58
2021/11/18 09:46:28;;;;;;;19.03;13.60;;;11.70;99.90;;;;;;5053036;28;20202;-57
2021/11/18 09:49:21;;;;;;;19.70;13.93;;;11.70;99.90;;;;;;5052691;28;20697;-57
2021/11/18 09:51:55;;;;;;;18.63;12.97;;;11.80;99.90;;;;;;5052138;28;20205;-56
2021/11/18 09:54:51;;;;;;;19.83;13.47;;;11.90;99.90;;;;;;5052688;28;20228;-56
2021/11/18 09:57:34;;;;;;;24.63;13.30;;;12.10;99.90;;;;;;5052648;28;20209;-56
2021/11/18 10:00:08;;;;;;;20.80;12.80;;;12.40;99.90;;;;;;5052634;28;20206;-56
2021/11/18 10:03:04;;;;;;;21.17;12.50;;;12.50;99.90;;;;;;5052645;28;20608;-56
2021/11/18 10:05:40;;;;;;;18.67;12.37;;;12.50;99.90;;;;;;5052254;28;20229;-58
2021/11/18 10:08:10;;;;;;;19.30;12.50;;;12.40;99.90;;;;;;5052547;28;20208;-56
2021/11/18 10:10:43;;;;;;;18.43;12.73;;;12.40;99.90;;;;;;5052292;28;20216;-56
2021/11/18 10:13:30;;;;;;;20.50;12.50;;;12.30;99.90;;;;;;5052302;28;20213;-56
2021/11/18 10:16:01;;;;;;;20.63;14.30;;;12.40;99.90;;;;;;5052145;28;20213;-56
2021/11/18 10:18:31;;;;;;;23.03;14.03;;;12.30;99.90;;;;;;5052616;28;20229;-58
2021/11/18 10:21:04;;;;;;;21.80;13.80;;;12.30;99.90;;;;;;5052182;28;20675;-58
2021/11/18 10:23:31;;;;;;;22.50;15.13;;;12.20;99.90;;;;;;5052106;28;20205;-57
2021/11/18 10:26:02;;;;;;;23.10;14.40;;;12.20;99.90;;;;;;5052189;28;20220;-57
2021/11/18 10:28:49;;;;;;;23.13;14.53;;;12.20;99.90;;;;;;5052128;28;20756;-58
2021/11/18 10:31:24;;;;;;;21.70;14.33;;;12.40;99.90;;;;;;5052194;28;20216;-56
2021/11/18 10:34:11;;;;;;;23.90;14.47;;;12.50;99.90;;;;;;5051804;28;20298;-57
2021/11/18 10:37:05;;;;;;;21.43;13.37;;;12.60;99.90;;;;;;5051641;28;20233;-57
2021/11/18 10:39:45;;;;;;;17.90;12.03;;;12.80;99.90;;;;;;5051925;28;20240;-58
2021/11/18 10:42:22;;;;;;;21.67;13.23;;;13.00;99.90;;;;;;5051900;28;20505;-58
2021/11/18 10:44:52;;;;;;;17.63;12.07;;;13.10;99.90;;;;;;5051557;28;20249;-57
2021/11/18 10:47:21;;;;;;;16.07;11.83;;;13.20;99.90;;;;;;5051580;28;20209;-56
2021/11/18 10:49:58;;;;;;;18.53;11.77;;;13.30;99.90;;;;;;5051841;28;20212;-57
2021/11/18 10:52:31;;;;;;;18.90;11.20;;;13.40;99.90;;;;;;5051590;28;20210;-56
2021/11/18 10:55:18;;;;;;;18.50;12.10;;;13.50;99.90;;;;;;5051307;28;20221;-57
2021/11/18 10:58:00;;;;;;;16.90;11.50;;;13.60;99.90;;;;;;5051140;28;20229;-56
2021/11/18 11:00:30;;;;;;;15.67;11.77;;;13.70;99.90;;;;;;5051381;28;20205;-56
2021/11/18 11:02:58;;;;;;;16.17;11.40;;;13.70;99.90;;;;;;5051563;28;20209;-56
2021/11/18 11:05:37;;;;;;;20.23;12.30;;;13.70;99.90;;;;;;5051230;28;20252;-56
2021/11/18 11:08:24;;;;;;;17.93;11.80;;;13.60;99.90;;;;;;5051088;28;20212;-58
2021/11/18 11:10:56;;;;;;;21.47;13.63;;;13.70;99.90;;;;;;5051398;28;20683;-57
2021/11/18 11:13:44;;;;;;;18.00;12.87;;;13.90;99.90;;;;;;5051467;28;20212;-58
2021/11/18 11:16:26;;;;;;;15.93;11.30;;;14.00;99.90;;;;;;5050949;28;20206;-56
2021/11/18 11:19:00;;;;;;;15.37;12.10;;;14.10;99.90;;;;;;5051357;28;20613;-56
2021/11/18 11:21:41;;;;;;;17.37;12.27;;;14.30;99.90;;;;;;5051628;28;20620;-57
2021/11/18 11:24:49;;;;;;;17.27;12.07;;;14.60;99.90;;;;;;5051256;28;20229;-57
2021/11/18 11:27:35;;;;;;;18.00;12.20;;;14.60;99.90;;;;;;4989754;28;20242;-56
2021/11/18 11:30:14;;;;;;;18.47;11.83;;;14.50;99.90;;;;;;5044230;28;20205;-56
2021/11/18 11:32:46;;;;;;;18.97;12.03;;;14.00;99.90;;;;;;5051051;28;20205;-58
2021/11/18 11:35:31;;;;;;;17.13;11.90;;;13.40;99.90;;;;;;5050748;28;20649;-56
2021/11/18 11:38:23;;;;;;;17.33;12.27;;;12.90;99.90;;;;;;5050880;28;20221;-57
2021/11/18 11:41:00;;;;;;;16.07;11.30;;;12.90;99.90;;;;;;5051133;28;20224;-57
2021/11/18 11:43:39;;;;;;;16.17;11.03;;;13.20;99.90;;;;;;5050583;28;20222;-57
2021/11/18 11:46:39;;;;;;;16.53;12.10;;;13.40;99.90;;;;;;5050768;28;20560;-57
2021/11/18 11:49:28;;;;;;;15.40;10.73;;;13.40;99.90;;;;;;5050502;28;20206;-57
2021/11/18 11:52:11;;;;;;;15.70;11.50;;;13.50;99.90;;;;;;5050571;28;20662;-58
2021/11/18 11:55:22;;;;;;;16.07;12.43;;;13.50;99.90;;;;;;5050882;28;20225;-56
2021/11/18 11:57:55;;;;;;;14.50;11.20;;;13.50;99.90;;;;;;5050477;28;20605;-56
2021/11/18 12:00:26;;;;;;;18.30;11.00;;;13.40;99.90;;;;;;5050777;28;20209;-56
2021/11/18 12:03:13;;;;;;;15.27;11.50;;;12.80;99.90;;;;;;5050411;28;20700;-56
2021/11/18 12:05:46;;;;;;;15.03;10.63;;;12.40;99.90;;;;;;5050311;28;20317;-57
2021/11/18 12:08:19;;;;;;;18.37;11.17;;;12.20;99.90;;;;;;5050347;28;20205;-56
2021/11/18 12:10:52;;;;;;;15.23;11.43;;;11.90;99.90;;;;;;5050492;28;20213;-57
2021/11/18 12:13:27;;;;;;;16.73;11.40;;;11.90;99.90;;;;;;5050820;28;20209;-56
2021/11/18 12:16:10;;;;;;;15.23;11.43;;;12.00;99.90;;;;;;5054538;28;20233;-57
2021/11/18 12:18:44;;;;;;;16.37;11.33;;;12.10;99.90;;;;;;5054121;28;20229;-55
2021/11/18 12:21:11;;;;;;;14.00;10.37;;;12.40;99.90;;;;;;5054669;28;20228;-58
2021/11/18 12:24:14;;;;;;;14.17;9.97;;;12.70;99.90;;;;;;5054255;28;20209;-57
2021/11/18 12:26:57;;;;;;;15.23;10.80;;;12.90;99.90;;;;;;5054306;28;20552;-56
2021/11/18 12:29:38;;;;;;;16.73;10.23;;;12.80;99.90;;;;;;5054278;28;20197;-56
2021/11/18 12:32:34;;;;;;;16.73;10.53;;;12.70;99.90;;;;;;5054310;28;20209;-56
2021/11/18 12:35:34;;;;;;;14.80;10.87;;;12.30;99.90;;;;;;5054156;28;20724;-57
2021/11/18 12:38:29;;;;;;;15.73;11.10;;;12.00;99.90;;;;;;5053922;28;20229;-56
2021/11/18 12:41:34;;;;;;;13.97;10.20;;;12.20;99.90;;;;;;5054034;28;20209;-56
2021/11/18 12:44:41;;;;;;;15.27;9.80;;;12.50;99.90;;;;;;5053724;28;20237;-56
2021/11/18 12:47:11;;;;;;;16.70;10.93;;;12.80;99.90;;;;;;4972604;28;20515;-57
2021/11/18 12:50:01;;;;;;;15.23;11.10;;;13.00;99.90;;;;;;5041827;28;20205;-56
2021/11/18 12:52:31;;;;;;;17.60;9.80;;;13.20;99.90;;;;;;5053995;28;20217;-56
2021/11/18 12:55:34;;;;;;;15.03;10.23;;;13.40;99.90;;;;;;5053631;28;20588;-56
2021/11/18 12:58:36;;;;;;;12.73;9.67;;;13.30;99.90;;;;;;5053321;28;20237;-57
2021/11/18 13:01:41;;;;;;;15.30;10.30;;;12.90;99.90;;;;;;5053642;28;20622;-56